Time;durP1;ratioP1;P1;durP2;ratioP2;P2;SDS_P1;SDS_P2;PMS_P1;PMS_P2;Temp;Humidity;BMP_temperature;BMP_pressure;BME280_temperature;BME280_humidity;BME280_pressure;Samples;Min_cycle;Max_cycle;Signal;HPM_P1;HPM_P2
2022/11/20 00:18:23;;;;;;;38.80;36.00;;;6.30;99.90;;;;;;5087286;22;21344;-84
2022/11/20 00:20:50;;;;;;;39.67;36.97;;;6.40;99.90;;;;;;4993630;28;20451;-84
2022/11/20 00:23:16;;;;;;;40.33;37.60;;;6.40;99.90;;;;;;4993168;28;20450;-84
2022/11/20 00:25:45;;;;;;;40.53;37.73;;;6.40;99.90;;;;;;4993049;28;20447;-84
2022/11/20 00:28:12;;;;;;;39.37;36.60;;;6.30;99.90;;;;;;4993044;28;20455;-83
2022/11/20 00:30:39;;;;;;;39.93;37.13;;;6.20;99.90;;;;;;4993084;28;20462;-83
2022/11/20 00:33:06;;;;;;;41.30;38.13;;;6.30;99.90;;;;;;4993286;28;20451;-85
2022/11/20 00:35:34;;;;;;;40.43;37.63;;;6.40;99.90;;;;;;4992936;28;20447;-85
2022/11/20 00:38:01;;;;;;;40.47;37.57;;;6.50;99.90;;;;;;4993102;28;20451;-85
2022/11/20 00:40:28;;;;;;;39.03;36.43;;;6.60;99.90;;;;;;4992968;28;20449;-85
2022/11/20 00:42:54;;;;;;;39.33;36.63;;;6.60;99.90;;;;;;4993238;28;20454;-83
2022/11/20 00:45:21;;;;;;;41.90;38.87;;;6.80;99.90;;;;;;4993099;28;20538;-85
2022/11/20 00:47:48;;;;;;;38.90;36.10;;;6.80;99.90;;;;;;4993207;28;20447;-85
2022/11/20 00:50:15;;;;;;;39.37;36.47;;;6.80;99.90;;;;;;4992895;28;20476;-84
2022/11/20 00:52:43;;;;;;;38.27;35.77;;;6.70;99.90;;;;;;4993878;28;20442;-86
2022/11/20 00:55:10;;;;;;;36.37;34.03;;;6.80;99.90;;;;;;4996439;28;20453;-89
2022/11/20 00:57:39;;;;;;;38.50;35.90;;;6.80;99.90;;;;;;5007622;28;20478;-89
2022/11/20 01:00:09;;;;;;;37.00;34.37;;;6.80;99.90;;;;;;5000844;28;20500;-86
2022/11/20 01:02:36;;;;;;;34.10;32.00;;;6.80;99.90;;;;;;4998840;28;20446;-86
2022/11/20 01:05:04;;;;;;;34.80;32.70;;;6.80;99.90;;;;;;4993992;28;20530;-86
2022/11/20 01:07:48;;;;;;;34.47;32.47;;;6.80;99.90;;;;;;4997877;28;20806;-88
2022/11/20 01:10:17;;;;;;;32.80;30.70;;;6.80;99.90;;;;;;4994545;28;20447;-87
2022/11/20 01:13:36;;;;;;;31.77;29.80;;;6.80;99.90;;;;;;4992780;28;20467;-86
2022/11/20 01:15:30;;;;;;;30.63;28.87;;;6.90;99.90;;;;;;5002401;28;20480;-87
2022/11/20 01:17:57;;;;;;;28.93;27.27;;;6.80;99.90;;;;;;5012103;28;21062;-84
2022/11/20 01:20:24;;;;;;;28.10;26.60;;;6.90;99.90;;;;;;5011650;28;20476;-84
2022/11/20 01:22:50;;;;;;;26.40;25.10;;;6.90;99.90;;;;;;5011935;28;20799;-83
2022/11/20 01:25:19;;;;;;;25.93;24.13;;;6.90;99.90;;;;;;5011794;28;20449;-82
2022/11/20 01:27:45;;;;;;;23.40;22.30;;;7.00;99.90;;;;;;5011589;28;20445;-81
2022/11/20 01:30:13;;;;;;;23.00;21.80;;;7.00;99.90;;;;;;5011576;28;20573;-80
2022/11/20 01:32:40;;;;;;;21.00;20.00;;;7.00;99.90;;;;;;5011609;28;20450;-79
2022/11/20 01:35:09;;;;;;;21.60;20.40;;;7.00;99.90;;;;;;5011679;28;20446;-82
2022/11/20 01:37:36;;;;;;;19.57;18.67;;;7.10;99.90;;;;;;5011710;28;20478;-82
2022/11/20 01:40:03;;;;;;;19.60;18.60;;;7.10;99.90;;;;;;5011955;28;20450;-82
2022/11/20 01:45:55;;;;;;;18.30;17.27;;;7.10;99.90;;;;;;5011532;28;20445;-81
2022/11/20 01:48:24;;;;;;;18.40;17.40;;;7.10;99.90;;;;;;5011430;28;20471;-80
2022/11/20 01:50:53;;;;;;;18.27;17.43;;;7.10;99.90;;;;;;5011305;28;20446;-81
2022/11/20 01:53:24;;;;;;;17.40;16.60;;;7.10;99.90;;;;;;5011458;28;20458;-80
2022/11/20 01:55:53;;;;;;;17.10;16.30;;;7.10;99.90;;;;;;5011181;28;20813;-80
2022/11/20 01:58:26;;;;;;;18.33;17.20;;;7.10;99.90;;;;;;5011392;28;20454;-81
2022/11/20 02:00:53;;;;;;;18.30;17.43;;;7.10;99.90;;;;;;5011061;28;20465;-82
2022/11/20 02:03:21;;;;;;;17.07;16.37;;;7.00;99.90;;;;;;5011166;28;20516;-82
2022/11/20 02:05:52;;;;;;;16.60;15.90;;;7.00;99.90;;;;;;5011148;28;20542;-82
2022/11/20 02:08:20;;;;;;;17.80;16.90;;;6.90;99.90;;;;;;5010921;28;20952;-81
2022/11/20 02:10:46;;;;;;;17.60;16.80;;;7.00;99.90;;;;;;5010705;28;20971;-81
2022/11/20 02:15:59;;;;;;;16.30;15.50;;;7.00;99.90;;;;;;5010681;28;20796;-80
2022/11/20 02:18:26;;;;;;;17.10;16.37;;;7.00;99.90;;;;;;5010477;28;20452;-80
2022/11/20 02:20:59;;;;;;;16.53;15.73;;;7.10;99.90;;;;;;5010646;28;20453;-77
2022/11/20 02:23:32;;;;;;;15.67;14.93;;;7.10;99.90;;;;;;5010756;28;20478;-79
2022/11/20 02:26:03;;;;;;;15.70;15.00;;;7.10;99.90;;;;;;5010194;28;20450;-81
2022/11/20 02:28:30;;;;;;;15.90;14.90;;;7.20;99.90;;;;;;5010501;28;20454;-80
2022/11/20 02:30:56;;;;;;;15.30;14.60;;;7.10;99.90;;;;;;5010435;28;20852;-80
2022/11/20 02:33:23;;;;;;;15.77;14.87;;;7.10;99.90;;;;;;5010558;28;20445;-80
2022/11/20 02:35:50;;;;;;;15.67;14.93;;;7.10;99.90;;;;;;5010764;28;20959;-82
2022/11/20 02:38:17;;;;;;;15.67;15.00;;;7.10;99.90;;;;;;5010453;28;20489;-83
2022/11/20 02:40:43;;;;;;;16.37;15.53;;;7.10;99.90;;;;;;5010431;28;21156;-84
2022/11/20 02:43:12;;;;;;;14.93;14.20;;;7.10;99.90;;;;;;5010415;28;20915;-83
2022/11/20 02:45:38;;;;;;;15.20;14.50;;;7.10;99.90;;;;;;5010303;28;20473;-84
2022/11/20 02:48:07;;;;;;;15.30;14.70;;;7.00;99.90;;;;;;5010673;28;20456;-83
2022/11/20 02:50:34;;;;;;;16.07;15.30;;;7.00;99.90;;;;;;5010565;28;20464;-78
2022/11/20 02:53:01;;;;;;;15.33;14.60;;;7.00;99.90;;;;;;5010096;28;20458;-79
2022/11/20 02:55:27;;;;;;;15.70;14.90;;;7.00;99.90;;;;;;5009987;28;20450;-78
2022/11/20 02:57:54;;;;;;;17.10;16.30;;;7.00;99.90;;;;;;5009802;28;20519;-79
2022/11/20 03:00:22;;;;;;;16.10;15.40;;;7.10;99.90;;;;;;5010176;28;20453;-79
2022/11/20 03:02:49;;;;;;;15.97;15.27;;;7.10;99.90;;;;;;5010186;28;20461;-79
2022/11/20 03:05:16;;;;;;;17.80;17.00;;;7.10;99.90;;;;;;5010079;28;20544;-79
2022/11/20 03:07:44;;;;;;;16.53;15.83;;;7.20;99.90;;;;;;5009965;28;20442;-78
2022/11/20 03:10:11;;;;;;;16.97;15.97;;;7.20;99.90;;;;;;5009892;28;20461;-84
2022/11/20 03:12:37;;;;;;;16.70;16.00;;;7.20;99.90;;;;;;5010090;28;20502;-84
2022/11/20 03:15:05;;;;;;;16.57;15.87;;;7.20;99.90;;;;;;5010147;28;20840;-82
2022/11/20 03:17:33;;;;;;;16.93;16.07;;;7.30;99.90;;;;;;5009926;28;20517;-81
2022/11/20 03:20:00;;;;;;;17.37;16.53;;;7.20;99.90;;;;;;5009633;28;20473;-81
2022/11/20 03:22:29;;;;;;;17.00;16.10;;;7.20;99.90;;;;;;5009553;28;20446;-81
2022/11/20 03:24:55;;;;;;;16.43;15.57;;;7.30;99.90;;;;;;5009594;28;20659;-81
2022/11/20 03:27:22;;;;;;;17.33;16.40;;;7.30;99.90;;;;;;5009719;28;20446;-82
2022/11/20 03:29:49;;;;;;;16.83;16.00;;;7.30;99.90;;;;;;5009887;28;20512;-82
2022/11/20 03:32:16;;;;;;;17.00;16.03;;;7.30;99.90;;;;;;5009852;28;20539;-82
2022/11/20 03:34:44;;;;;;;17.03;16.13;;;7.20;99.90;;;;;;5009494;28;20445;-82
2022/11/20 03:37:10;;;;;;;16.93;16.07;;;7.20;99.90;;;;;;5009602;28;21030;-80
2022/11/20 03:39:37;;;;;;;15.87;15.10;;;7.30;99.90;;;;;;5013786;28;20456;-82
2022/11/20 03:42:44;;;;;;;16.30;15.60;;;7.10;99.90;;;;;;5013677;28;20465;-82
2022/11/20 03:44:51;;;;;;;16.67;15.83;;;7.10;99.90;;;;;;5013731;28;20496;-81
2022/11/20 03:47:18;;;;;;;17.07;16.27;;;7.10;99.90;;;;;;5013748;28;20446;-80
2022/11/20 05:25:42;;;;;;;15.57;14.67;;;7.10;99.90;;;;;;5349305;22;20501;-76
2022/11/20 05:28:09;;;;;;;16.00;15.07;;;7.20;99.90;;;;;;4981753;28;20446;-76
2022/11/20 05:30:36;;;;;;;15.17;14.57;;;7.10;99.90;;;;;;4980547;28;20464;-76
2022/11/20 05:33:03;;;;;;;15.47;14.67;;;7.10;99.90;;;;;;4982462;28;20451;-77
2022/11/20 05:35:29;;;;;;;15.00;14.40;;;7.10;99.90;;;;;;4981537;28;20558;-77
2022/11/20 05:37:56;;;;;;;14.40;13.80;;;7.10;99.90;;;;;;4980061;28;21007;-75
2022/11/20 05:40:23;;;;;;;15.23;14.50;;;7.10;99.90;;;;;;4982405;28;20454;-76
2022/11/20 05:42:51;;;;;;;14.50;13.90;;;7.10;99.90;;;;;;4981196;28;20450;-76
2022/11/20 05:45:17;;;;;;;15.00;14.40;;;7.10;99.90;;;;;;4979835;28;20444;-76
2022/11/20 05:47:54;;;;;;;14.63;14.00;;;7.10;99.90;;;;;;4981927;28;20789;-76
2022/11/20 06:15:24;;;;;;;16.00;15.20;;;7.30;99.90;;;;;;4592923;30;20440;-76
2022/11/20 06:17:53;;;;;;;15.53;14.83;;;7.30;99.90;;;;;;4749836;29;20234;-75
2022/11/20 06:20:20;;;;;;;14.33;13.73;;;7.30;99.90;;;;;;4855157;29;20846;-75
2022/11/20 06:22:47;;;;;;;14.60;13.90;;;7.30;99.90;;;;;;4854577;29;20919;-75
2022/11/20 06:25:14;;;;;;;15.20;14.50;;;7.30;99.90;;;;;;4836232;29;20486;-75
2022/11/20 06:27:41;;;;;;;15.47;14.67;;;7.30;99.90;;;;;;4836758;29;20450;-75
2022/11/20 06:30:09;;;;;;;15.70;14.90;;;7.40;99.90;;;;;;4836716;29;20501;-74
2022/11/20 06:32:37;;;;;;;15.23;14.43;;;7.40;99.90;;;;;;4836939;29;20454;-75
2022/11/20 06:35:05;;;;;;;14.40;13.80;;;7.40;99.90;;;;;;4836604;29;20461;-75
2022/11/20 06:37:32;;;;;;;15.13;14.43;;;7.40;99.90;;;;;;4836580;29;21571;-74
2022/11/20 06:39:58;;;;;;;14.57;13.97;;;7.30;99.90;;;;;;4836524;29;20458;-75
2022/11/20 06:42:25;;;;;;;14.83;14.23;;;7.40;99.90;;;;;;4836321;29;20815;-77
2022/11/20 06:44:52;;;;;;;14.13;13.53;;;7.40;99.90;;;;;;4863706;29;20462;-76
2022/11/20 06:47:19;;;;;;;14.70;14.00;;;7.40;99.90;;;;;;4895225;29;20764;-87
2022/11/20 06:49:47;;;;;;;14.60;14.00;;;7.30;99.90;;;;;;4924569;29;20437;-85
2022/11/20 06:52:13;;;;;;;14.83;14.13;;;7.30;99.90;;;;;;4977508;28;20429;-88
2022/11/20 06:54:40;;;;;;;15.13;14.43;;;7.30;99.90;;;;;;4975736;28;20470;-88
2022/11/20 06:57:07;;;;;;;14.20;13.60;;;7.30;99.90;;;;;;4974887;29;20472;-88
2022/11/20 07:15:11;;;;;;;13.93;13.23;;;7.20;99.90;;;;;;4833216;29;20847;-88
2022/11/20 07:17:37;;;;;;;14.37;13.53;;;7.30;99.90;;;;;;4876822;29;20498;-87
2022/11/20 07:20:55;;;;;;;14.20;13.23;;;7.30;99.90;;;;;;4875727;29;21004;-89
2022/11/20 07:23:54;;;;;;;14.63;13.83;;;7.40;99.90;;;;;;4909258;29;20563;-89
2022/11/20 07:26:30;;;;;;;13.67;13.17;;;7.50;99.90;;;;;;4926581;29;20544;-88
2022/11/20 07:28:57;;;;;;;15.00;14.23;;;7.50;99.90;;;;;;4950395;29;20448;-76
2022/11/20 07:31:25;;;;;;;14.17;13.50;;;7.50;99.90;;;;;;4980830;28;20447;-89
2022/11/20 07:33:52;;;;;;;13.47;12.97;;;7.50;99.90;;;;;;4994834;28;20517;-90
2022/11/20 07:36:18;;;;;;;14.07;13.37;;;7.50;99.90;;;;;;4993428;28;20451;-91
2022/11/20 07:38:45;;;;;;;13.50;12.90;;;7.60;99.90;;;;;;4993731;28;20483;-89
2022/11/20 07:41:12;;;;;;;13.50;12.90;;;7.60;99.90;;;;;;4994890;28;20451;-89
2022/11/20 07:43:39;;;;;;;14.13;13.50;;;7.60;99.90;;;;;;4995385;28;20453;-88
2022/11/20 07:46:08;;;;;;;13.97;13.30;;;7.60;99.90;;;;;;4994592;28;20462;-88
2022/11/20 07:48:36;;;;;;;13.33;12.50;;;7.70;99.90;;;;;;4992943;28;20538;-88
2022/11/20 07:51:04;;;;;;;13.07;12.57;;;7.80;99.90;;;;;;4993562;28;20459;-88
2022/11/20 07:53:30;;;;;;;13.13;12.53;;;7.80;99.90;;;;;;4993193;28;20451;-90
2022/11/20 07:56:03;;;;;;;14.03;13.33;;;7.90;99.90;;;;;;4994283;28;20451;-90
2022/11/20 07:58:32;;;;;;;13.23;12.73;;;8.00;99.90;;;;;;5001952;28;20497;-91
2022/11/20 08:01:03;;;;;;;12.50;12.00;;;8.10;99.90;;;;;;5003844;28;20439;-92
2022/11/20 08:03:29;;;;;;;13.30;12.70;;;8.20;99.90;;;;;;4996326;28;20453;-90
2022/11/20 08:05:59;;;;;;;13.90;13.13;;;8.30;99.90;;;;;;5013491;28;20465;-87
2022/11/20 08:08:26;;;;;;;13.40;12.80;;;8.30;99.90;;;;;;5010542;28;20501;-85
2022/11/20 08:14:11;;;;;;;13.67;13.07;;;8.30;99.90;;;;;;5010224;28;20916;-77
2022/11/20 08:16:24;;;;;;;12.33;11.73;;;8.30;99.90;;;;;;4998438;28;20516;-77
2022/11/20 08:18:51;;;;;;;14.00;13.30;;;8.40;99.90;;;;;;4989616;28;20999;-76
2022/11/20 08:21:19;;;;;;;13.80;13.00;;;8.50;99.90;;;;;;4989595;28;20960;-75
2022/11/20 08:23:45;;;;;;;12.90;12.40;;;8.60;99.90;;;;;;4990397;28;20478;-76
2022/11/20 08:26:12;;;;;;;12.80;12.30;;;8.60;99.90;;;;;;4991570;28;20454;-75
2022/11/20 08:28:39;;;;;;;12.37;11.87;;;8.50;99.90;;;;;;4993836;28;20446;-76
2022/11/20 08:31:06;;;;;;;12.60;12.13;;;8.40;99.90;;;;;;4993721;28;20439;-75
2022/11/20 08:33:33;;;;;;;11.57;11.07;;;8.50;99.90;;;;;;4995990;28;20453;-92
2022/11/20 08:36:01;;;;;;;12.43;11.90;;;8.60;99.90;;;;;;5005237;28;20968;-91
2022/11/20 08:38:29;;;;;;;12.17;11.73;;;8.60;99.90;;;;;;4997273;28;20483;-90
2022/11/20 08:43:42;;;;;;;12.93;12.13;;;8.50;99.90;;;;;;4997482;28;20561;-88
2022/11/20 08:46:09;;;;;;;12.80;12.30;;;8.70;99.90;;;;;;4994673;28;20447;-87
2022/11/20 08:48:35;;;;;;;12.20;11.70;;;8.70;99.90;;;;;;4993714;28;20463;-86
2022/11/20 08:51:03;;;;;;;13.17;12.47;;;8.70;99.90;;;;;;4994516;28;20450;-85
2022/11/20 08:53:31;;;;;;;13.10;12.20;;;8.70;99.90;;;;;;4993864;28;20537;-86
2022/11/20 08:55:58;;;;;;;12.93;12.43;;;8.90;99.90;;;;;;4994271;28;20451;-86
2022/11/20 08:58:25;;;;;;;12.67;12.07;;;9.00;99.90;;;;;;4994343;28;20490;-84
2022/11/20 09:00:52;;;;;;;12.83;12.13;;;9.10;99.90;;;;;;4996012;28;20463;-76
2022/11/20 09:03:19;;;;;;;13.00;12.50;;;9.30;99.90;;;;;;4992863;28;20534;-79
2022/11/20 09:05:46;;;;;;;12.70;12.30;;;9.50;99.90;;;;;;4992380;28;20724;-75
2022/11/20 09:08:13;;;;;;;12.30;11.90;;;9.70;99.90;;;;;;4992729;28;20481;-82
2022/11/20 09:10:41;;;;;;;11.60;11.20;;;9.80;99.90;;;;;;4993695;28;20454;-85
2022/11/20 09:13:07;;;;;;;11.67;11.27;;;10.00;99.90;;;;;;4991172;28;20455;-83
2022/11/20 09:15:35;;;;;;;12.43;11.93;;;10.00;99.90;;;;;;4993061;28;20451;-83
2022/11/20 09:18:03;;;;;;;12.30;11.80;;;10.00;99.90;;;;;;4993041;28;20509;-85
2022/11/20 09:20:31;;;;;;;11.33;10.93;;;10.20;99.90;;;;;;4993256;28;20450;-84
2022/11/20 09:22:58;;;;;;;11.57;11.13;;;10.20;99.90;;;;;;4992407;28;20499;-85
2022/11/20 09:25:24;;;;;;;11.53;11.03;;;10.40;99.90;;;;;;4992516;28;20450;-84
2022/11/20 09:27:57;;;;;;;11.83;11.33;;;10.40;99.90;;;;;;4992462;28;20804;-85
2022/11/20 09:30:24;;;;;;;11.33;10.93;;;10.40;99.90;;;;;;4993537;28;20462;-85
2022/11/20 09:32:51;;;;;;;11.37;10.87;;;10.30;99.90;;;;;;4993114;28;20472;-84
2022/11/20 09:35:18;;;;;;;10.17;9.87;;;10.20;99.90;;;;;;4991362;28;20451;-85
2022/11/20 09:37:47;;;;;;;11.70;11.20;;;9.90;99.90;;;;;;4992105;28;20473;-86
2022/11/20 09:40:21;;;;;;;11.10;10.60;;;10.00;99.90;;;;;;4992135;28;20483;-86
2022/11/20 09:42:56;;;;;;;11.93;11.50;;;10.20;99.90;;;;;;4992173;28;20457;-85
2022/11/20 09:45:39;;;;;;;11.80;11.40;;;10.20;99.90;;;;;;4992648;28;20840;-85
2022/11/20 09:48:21;;;;;;;11.50;11.10;;;10.30;99.90;;;;;;4992392;28;20455;-84
2022/11/20 09:50:57;;;;;;;11.30;10.87;;;10.30;99.90;;;;;;4992224;28;20731;-85
2022/11/20 09:53:31;;;;;;;11.57;11.17;;;10.20;99.90;;;;;;4992799;28;20538;-84
2022/11/20 09:56:01;;;;;;;11.30;10.90;;;10.10;99.90;;;;;;4995156;28;20509;-86
2022/11/20 09:58:32;;;;;;;11.60;10.80;;;10.00;99.90;;;;;;4991920;28;20852;-83
2022/11/20 10:01:09;;;;;;;10.90;10.60;;;10.10;99.90;;;;;;4993538;28;20447;-86
2022/11/20 10:03:45;;;;;;;11.20;10.80;;;10.10;99.90;;;;;;4992694;28;20530;-86
2022/11/20 10:06:16;;;;;;;11.37;10.97;;;10.00;99.90;;;;;;4992377;28;20458;-86
2022/11/20 10:08:46;;;;;;;11.60;11.20;;;10.20;99.90;;;;;;4992076;28;20508;-85
2022/11/20 10:11:23;;;;;;;11.10;10.70;;;10.20;99.90;;;;;;4993788;28;20933;-88
2022/11/20 10:13:58;;;;;;;10.43;10.13;;;10.20;99.90;;;;;;4994197;28;20456;-84
2022/11/20 10:16:34;;;;;;;11.10;10.70;;;10.10;99.90;;;;;;4994054;28;20466;-87
2022/11/20 10:19:13;;;;;;;11.13;10.63;;;10.10;99.90;;;;;;4992377;28;20482;-85
2022/11/20 10:21:51;;;;;;;10.67;10.37;;;9.90;99.90;;;;;;4992239;28;20450;-85
2022/11/20 10:24:36;;;;;;;10.53;10.23;;;9.90;99.90;;;;;;4991458;28;20476;-85
2022/11/20 10:27:09;;;;;;;11.17;10.77;;;9.80;99.90;;;;;;4991728;28;20462;-83
2022/11/20 10:29:42;;;;;;;10.80;10.50;;;9.80;99.90;;;;;;4991239;28;20810;-84
2022/11/20 10:32:15;;;;;;;11.10;10.70;;;9.70;99.90;;;;;;4991466;28;20446;-81
2022/11/20 10:34:51;;;;;;;13.07;12.67;;;9.70;99.90;;;;;;4991179;28;20501;-79
2022/11/20 10:37:22;;;;;;;15.90;15.40;;;9.70;99.90;;;;;;4990768;28;20454;-73
2022/11/20 10:39:55;;;;;;;18.67;17.97;;;9.50;99.90;;;;;;4990300;28;20482;-73
2022/11/20 10:42:31;;;;;;;22.77;21.87;;;9.30;99.90;;;;;;4990760;28;20533;-73
2022/11/20 10:45:14;;;;;;;31.60;30.30;;;9.00;99.90;;;;;;4990477;28;20450;-74
2022/11/20 10:47:42;;;;;;;32.50;31.10;;;8.80;99.90;;;;;;4990327;28;20458;-74
2022/11/20 10:50:15;;;;;;;34.00;32.60;;;8.90;99.90;;;;;;4990498;28;20447;-75
2022/11/20 10:52:52;;;;;;;34.00;32.60;;;9.00;99.90;;;;;;4990212;28;20476;-76
2022/11/20 10:55:29;;;;;;;34.57;33.00;;;9.10;99.90;;;;;;4990090;28;20465;-75
2022/11/20 10:58:06;;;;;;;33.40;31.90;;;9.00;99.90;;;;;;4990299;28;20457;-75
2022/11/20 11:03:54;;;;;;;35.17;33.67;;;8.90;99.90;;;;;;4932611;28;20465;-76
2022/11/20 11:06:26;;;;;;;34.37;32.87;;;8.70;99.90;;;;;;4989227;28;20955;-76
2022/11/20 11:19:52;;;;;;;32.73;31.23;;;9.10;99.90;;;;;;4797937;29;20487;-76
2022/11/20 11:39:28;;;;;;;30.80;29.60;;;9.70;99.90;;;;;;4718221;30;20552;-77
2022/11/20 11:41:55;;;;;;;27.20;26.00;;;11.00;99.90;;;;;;4770781;29;20471;-75
2022/11/20 11:45:10;;;;;;;23.33;22.33;;;12.20;99.90;;;;;;4882777;29;20455;-76
2022/11/20 12:01:34;;;;;;;15.33;14.70;;;16.50;99.90;;;;;;4742746;29;20453;-78
2022/11/20 12:07:47;;;;;;;15.00;14.50;;;15.90;99.90;;;;;;4803190;29;20444;-80
2022/11/20 12:10:58;;;;;;;14.90;14.40;;;16.10;99.90;;;;;;4838152;29;20568;-80
2022/11/20 12:17:41;;;;;;;14.80;14.20;;;15.80;99.90;;;;;;4784040;30;20851;-79
2022/11/20 12:34:45;;;;;;;12.80;12.30;;;16.10;99.50;;;;;;4840322;29;20454;-77
2022/11/20 13:08:27;;;;;;;10.83;10.43;;;11.90;99.90;;;;;;4943296;29;20502;-81
2022/11/20 13:28:17;;;;;;;;;;;;;;;;;;;;;
2022/11/20 13:31:32;;;;;;;10.70;10.30;;;12.00;99.90;;;;;;4931524;29;20440;-81
2022/11/20 14:05:23;;;;;;;9.50;9.20;;;10.80;99.90;;;;;;4626086;30;20448;-84
2022/11/20 14:08:04;;;;;;;10.13;9.83;;;11.00;99.90;;;;;;4654712;30;20969;-83
2022/11/20 14:39:58;;;;;;;11.00;10.30;;;9.70;99.90;;;;;;4649967;30;20551;-83
2022/11/20 14:46:08;;;;;;;9.90;9.50;;;9.80;99.90;;;;;;4699615;30;20531;-84
2022/11/20 16:50:22;;;;;;;12.07;11.63;;;8.30;99.90;;;;;;4682675;30;20473;-83
2022/11/20 16:52:49;;;;;;;12.23;11.67;;;8.40;99.90;;;;;;4799870;29;20459;-84
2022/11/20 16:55:16;;;;;;;11.30;10.90;;;8.30;99.90;;;;;;4845464;29;20456;-84
2022/11/20 16:57:42;;;;;;;12.83;12.13;;;8.30;99.90;;;;;;4875442;29;20455;-85
2022/11/20 17:00:10;;;;;;;11.93;11.33;;;8.30;99.90;;;;;;4875495;29;20488;-85
2022/11/20 17:02:37;;;;;;;12.73;12.20;;;8.40;99.90;;;;;;4896303;29;20471;-84
2022/11/20 17:05:05;;;;;;;12.80;12.20;;;8.40;99.90;;;;;;4894269;29;20452;-85
2022/11/20 17:07:33;;;;;;;12.47;11.87;;;8.30;99.90;;;;;;4894452;29;20491;-84
2022/11/20 17:10:00;;;;;;;12.10;11.60;;;8.30;99.90;;;;;;4894004;29;20474;-85
2022/11/20 17:12:27;;;;;;;13.30;12.80;;;8.30;99.90;;;;;;4893950;29;20508;-83
2022/11/20 17:14:53;;;;;;;12.90;12.30;;;8.30;99.90;;;;;;4893973;29;20462;-83
2022/11/20 17:17:20;;;;;;;13.47;12.70;;;8.30;99.90;;;;;;4893811;29;20856;-84
2022/11/20 17:19:47;;;;;;;13.53;12.83;;;8.30;99.90;;;;;;4906237;29;20537;-83
2022/11/20 17:22:14;;;;;;;13.40;12.70;;;8.30;99.90;;;;;;4912162;29;20458;-83
2022/11/20 17:24:42;;;;;;;12.60;12.07;;;8.30;99.90;;;;;;4912661;29;20976;-83
2022/11/20 17:27:09;;;;;;;13.47;12.80;;;8.20;99.90;;;;;;4948248;28;20448;-84
2022/11/20 17:29:36;;;;;;;13.40;12.80;;;8.20;99.90;;;;;;4972357;28;20451;-82
2022/11/20 17:32:02;;;;;;;12.97;12.47;;;8.20;99.90;;;;;;4986890;28;20479;-83
2022/11/20 17:34:29;;;;;;;13.60;13.00;;;8.20;99.90;;;;;;4991089;28;20946;-82
2022/11/20 17:36:56;;;;;;;13.00;12.47;;;8.20;99.90;;;;;;4991363;28;20450;-82
2022/11/20 17:39:23;;;;;;;12.50;12.00;;;8.20;99.90;;;;;;4991550;28;21044;-81
2022/11/20 17:44:32;;;;;;;13.40;12.63;;;8.20;99.90;;;;;;4990202;28;20450;-82
2022/11/20 17:46:58;;;;;;;12.57;11.80;;;8.20;99.90;;;;;;4990976;28;20443;-82
2022/11/20 17:49:25;;;;;;;12.77;12.07;;;8.20;99.90;;;;;;4991209;28;20446;-83
2022/11/20 17:51:52;;;;;;;12.40;11.73;;;8.20;99.90;;;;;;4991157;28;20932;-82
2022/11/20 17:54:19;;;;;;;12.80;12.20;;;8.20;99.90;;;;;;4975476;28;20651;-83
2022/11/20 17:59:31;;;;;;;13.47;12.77;;;8.20;99.90;;;;;;4974250;28;20574;-84
2022/11/20 18:01:58;;;;;;;12.00;11.40;;;8.30;99.90;;;;;;4991056;28;20933;-83
2022/11/20 18:04:25;;;;;;;12.70;11.83;;;8.30;99.90;;;;;;4990894;28;20457;-83
2022/11/20 18:06:52;;;;;;;12.43;11.90;;;8.30;99.90;;;;;;4988471;28;20447;-82
2022/11/20 18:09:18;;;;;;;11.83;11.33;;;8.30;99.90;;;;;;4978854;28;20801;-82
2022/11/20 18:11:45;;;;;;;11.27;10.70;;;8.40;99.90;;;;;;4980847;28;20471;-83
2022/11/20 18:14:30;;;;;;;11.53;10.93;;;8.40;99.90;;;;;;4982235;28;20458;-81
2022/11/20 18:17:01;;;;;;;12.23;11.53;;;8.50;99.90;;;;;;4979724;28;20519;-82
2022/11/20 18:19:29;;;;;;;11.33;10.80;;;8.50;99.90;;;;;;4980029;28;20968;-81
2022/11/20 18:21:56;;;;;;;11.37;10.97;;;8.60;99.90;;;;;;4984487;28;20447;-83
2022/11/20 18:24:23;;;;;;;11.40;11.00;;;8.50;99.90;;;;;;4981646;28;20469;-83
2022/11/20 18:26:50;;;;;;;11.60;11.00;;;8.60;99.90;;;;;;4981671;28;20451;-82
2022/11/20 18:29:17;;;;;;;11.70;11.20;;;8.60;99.90;;;;;;4979218;28;20436;-82
2022/11/20 18:31:44;;;;;;;10.90;10.50;;;8.70;99.90;;;;;;4980270;28;20454;-83
2022/11/20 18:34:13;;;;;;;11.23;10.73;;;8.60;99.90;;;;;;4980829;28;20451;-81
2022/11/20 18:36:40;;;;;;;11.50;11.00;;;8.60;99.90;;;;;;4979635;28;20789;-82
2022/11/20 18:39:13;;;;;;;11.50;11.10;;;8.50;99.90;;;;;;4982276;28;20546;-81
2022/11/20 18:47:13;;;;;;;12.13;11.63;;;8.50;99.90;;;;;;4980658;28;20423;-79
2022/11/20 18:49:45;;;;;;;12.53;11.97;;;8.50;99.90;;;;;;4981045;28;20469;-79
2022/11/20 18:52:12;;;;;;;13.90;13.30;;;8.40;99.90;;;;;;4980533;28;20494;-77
2022/11/20 18:54:38;;;;;;;19.60;18.70;;;8.30;99.90;;;;;;4978711;28;20535;-76
2022/11/20 18:57:05;;;;;;;21.60;20.80;;;8.30;99.90;;;;;;4979512;28;20439;-76
2022/11/20 18:59:32;;;;;;;26.20;25.10;;;8.20;99.90;;;;;;4988799;28;20933;-76
2022/11/20 19:01:59;;;;;;;26.73;25.60;;;8.10;99.90;;;;;;4989781;28;20459;-76
2022/11/20 19:04:26;;;;;;;29.90;28.60;;;8.10;99.90;;;;;;4987917;28;20451;-74
2022/11/20 19:06:55;;;;;;;29.00;27.80;;;8.00;99.90;;;;;;4993437;28;20461;-76
2022/11/20 19:09:22;;;;;;;30.33;28.80;;;7.70;99.90;;;;;;4993823;28;20534;-75
2022/11/20 19:11:49;;;;;;;29.90;28.70;;;7.60;99.90;;;;;;4991169;28;20443;-74
2022/11/20 19:14:16;;;;;;;29.97;28.57;;;7.50;99.90;;;;;;4989317;28;20471;-74
2022/11/20 19:16:43;;;;;;;31.10;29.83;;;7.50;99.90;;;;;;4979676;28;20443;-74
2022/11/20 19:19:10;;;;;;;32.20;30.80;;;7.40;99.90;;;;;;4980461;28;20550;-75
2022/11/20 19:21:36;;;;;;;30.77;29.37;;;7.40;99.90;;;;;;4978637;28;20475;-73
2022/11/20 19:24:05;;;;;;;31.07;29.70;;;7.30;99.90;;;;;;4979372;28;20931;-75
2022/11/20 19:26:34;;;;;;;32.90;31.40;;;7.30;99.90;;;;;;4979727;28;20444;-75
2022/11/20 19:29:01;;;;;;;31.77;30.47;;;7.20;99.90;;;;;;4978378;28;20450;-75
2022/11/20 19:31:28;;;;;;;31.67;30.37;;;7.20;99.90;;;;;;4978286;28;20917;-76
2022/11/20 19:33:56;;;;;;;30.93;29.63;;;7.20;99.90;;;;;;4980003;28;20857;-76
2022/11/20 19:36:24;;;;;;;31.13;29.80;;;7.20;99.90;;;;;;4977545;28;20956;-77
2022/11/20 19:38:53;;;;;;;30.40;29.10;;;7.20;99.90;;;;;;4980392;28;20459;-76
2022/11/20 19:41:27;;;;;;;30.87;29.50;;;7.10;99.90;;;;;;4980259;28;20470;-76
2022/11/20 19:43:55;;;;;;;30.87;29.67;;;7.20;99.90;;;;;;4980366;28;20450;-76
2022/11/20 19:46:22;;;;;;;30.40;29.20;;;7.10;99.90;;;;;;4978759;28;20534;-76
2022/11/20 19:48:49;;;;;;;32.37;30.87;;;7.10;99.90;;;;;;4978856;28;20439;-77
2022/11/20 19:51:17;;;;;;;29.77;28.30;;;7.10;99.90;;;;;;4980230;28;20443;-77
2022/11/20 19:53:45;;;;;;;28.20;27.10;;;7.10;99.90;;;;;;4978495;28;20941;-77
2022/11/20 19:56:12;;;;;;;27.20;26.20;;;7.10;99.90;;;;;;4978694;28;20543;-77
2022/11/20 19:58:40;;;;;;;27.60;26.50;;;7.10;99.90;;;;;;4980076;28;20497;-79
2022/11/20 20:01:08;;;;;;;27.30;26.20;;;7.00;99.90;;;;;;4979020;28;20486;-77
2022/11/20 20:03:35;;;;;;;27.00;26.00;;;7.00;99.90;;;;;;4977990;28;20448;-76
2022/11/20 20:06:03;;;;;;;27.23;26.17;;;7.10;99.90;;;;;;4976100;28;20435;-75
2022/11/20 20:08:30;;;;;;;26.30;25.20;;;7.00;99.90;;;;;;4977677;28;20455;-76
2022/11/20 20:10:58;;;;;;;25.30;24.40;;;7.00;99.90;;;;;;4977443;28;20945;-76
2022/11/20 20:13:25;;;;;;;23.20;22.40;;;7.00;99.90;;;;;;4979231;28;20447;-76
2022/11/20 20:15:53;;;;;;;24.27;23.37;;;7.00;99.90;;;;;;4979220;28;20448;-76
2022/11/20 20:18:20;;;;;;;21.27;20.57;;;7.00;99.90;;;;;;4977524;28;20476;-76
2022/11/20 20:20:46;;;;;;;21.97;21.17;;;7.00;99.90;;;;;;4981042;28;20691;-75
2022/11/20 20:23:13;;;;;;;20.30;19.60;;;7.00;99.90;;;;;;4982973;28;20486;-75
2022/11/20 20:25:40;;;;;;;20.90;20.20;;;7.10;99.90;;;;;;4983561;28;20447;-76
2022/11/20 20:28:07;;;;;;;20.17;19.47;;;7.20;99.90;;;;;;4981877;28;20827;-76
2022/11/20 20:30:35;;;;;;;19.60;18.90;;;7.20;99.90;;;;;;4981067;28;20854;-76
2022/11/20 20:33:04;;;;;;;20.13;19.37;;;7.20;99.90;;;;;;4980948;28;20471;-76
2022/11/20 20:35:30;;;;;;;18.10;17.50;;;7.30;99.90;;;;;;4981432;28;20497;-77
2022/11/20 20:37:57;;;;;;;17.90;17.30;;;7.30;99.90;;;;;;4982760;28;20815;-76
2022/11/20 20:40:24;;;;;;;18.30;17.70;;;7.30;99.90;;;;;;4981552;28;20545;-76
2022/11/20 20:42:51;;;;;;;17.60;17.00;;;7.30;99.90;;;;;;4981223;28;20940;-76
2022/11/20 20:45:17;;;;;;;18.07;17.47;;;7.30;99.90;;;;;;4982553;28;20806;-75
2022/11/20 20:47:44;;;;;;;18.50;17.90;;;7.20;99.90;;;;;;4981468;28;20436;-75